Time;durP1;ratioP1;P1;durP2;ratioP2;P2;SDS_P1;SDS_P2;PMS_P1;PMS_P2;Temp;Humidity;BMP_temperature;BMP_pressure;BME280_temperature;BME280_humidity;BME280_pressure;Samples;Min_cycle;Max_cycle;Signal;HPM_P1;HPM_P2
2021/12/08 00:01:47;;;;;;;15.88;7.95;;;-12.40;70.00;;;-13.40;99.69;99481.34;5028248;28;115722;-75
2021/12/08 00:04:16;;;;;;;23.40;9.10;;;-12.30;70.20;;;-13.35;99.72;99487.88;5010911;28;130396;-75
2021/12/08 00:06:44;;;;;;;19.60;8.10;;;-12.30;68.80;;;-13.39;99.01;99489.97;5022752;28;128817;-75
2021/12/08 00:09:27;;;;;;;16.90;8.25;;;-12.30;67.40;;;-13.47;98.96;99497.78;5019625;28;119129;-75
2021/12/08 00:14:43;;;;;;;17.55;7.65;;;-12.40;65.00;;;-13.63;98.51;99490.66;5036161;27;129086;-75
2021/12/08 00:17:12;;;;;;;18.85;7.75;;;-12.50;63.70;;;-13.71;98.35;99495.84;5017866;28;128578;-76
2021/12/08 00:19:41;;;;;;;17.35;6.93;;;-12.60;63.10;;;-13.81;98.49;99499.38;5010721;28;118018;-76
2021/12/08 00:22:10;;;;;;;17.83;7.57;;;-12.70;62.60;;;-13.80;98.04;99508.88;5024922;28;115002;-76
2021/12/08 00:24:41;;;;;;;19.05;6.80;;;-12.80;61.60;;;-13.86;97.86;99506.88;5008385;28;129956;-76
2021/12/08 00:27:10;;;;;;;23.13;8.35;;;-12.90;61.50;;;-13.89;97.09;99509.78;5019714;28;129763;-76
2021/12/08 00:29:39;;;;;;;20.85;8.25;;;-13.00;61.20;;;-13.94;97.43;99507.63;5020594;28;118634;-75
2021/12/08 00:32:09;;;;;;;17.67;7.90;;;-13.00;61.30;;;-13.93;97.24;99505.84;5012653;28;115130;-76
2021/12/08 00:34:39;;;;;;;15.98;7.05;;;-13.00;60.50;;;-13.83;96.67;99505.75;5022177;28;130496;-75
2021/12/08 00:37:08;;;;;;;17.08;6.35;;;-13.10;59.60;;;-13.98;96.63;99503.69;5025104;28;129429;-75
2021/12/08 00:39:37;;;;;;;13.65;7.32;;;-13.10;61.30;;;-14.06;96.74;99506.25;5025790;28;118653;-76
2021/12/08 00:42:07;;;;;;;19.25;6.97;;;-13.20;60.50;;;-14.08;96.85;99497.75;5024754;28;114743;-76
2021/12/08 00:44:36;;;;;;;15.80;7.30;;;-13.20;60.10;;;-14.02;96.51;99501.53;5013032;28;130352;-76
2021/12/08 00:47:05;;;;;;;18.98;7.25;;;-13.30;59.20;;;-14.12;96.14;99501.63;5014363;28;128534;-75
2021/12/08 00:49:34;;;;;;;18.98;7.20;;;-13.30;59.40;;;-14.16;95.81;99495.91;5008306;28;121101;-75
2021/12/08 00:52:03;;;;;;;18.15;7.80;;;-13.40;58.80;;;-14.11;95.70;99493.66;5009746;28;116203;-75
2021/12/08 00:54:31;;;;;;;14.98;7.20;;;-13.40;58.30;;;-14.19;95.10;99485.78;5023314;28;129957;-75
2021/12/08 00:57:00;;;;;;;20.02;7.55;;;-13.50;58.00;;;-14.38;95.51;99491.16;5007878;28;128548;-74
2021/12/08 00:59:30;;;;;;;15.88;7.38;;;-13.60;57.60;;;-14.47;95.46;99498.91;5021805;28;119148;-74
2021/12/08 01:02:02;;;;;;;15.95;7.28;;;-13.60;57.70;;;-14.31;95.80;99500.03;5019171;28;115183;-74
2021/12/08 01:04:31;;;;;;;17.35;7.00;;;-13.70;56.90;;;-14.33;95.11;99502.78;5017623;28;129998;-75
2021/12/08 01:07:01;;;;;;;21.50;7.22;;;-13.70;56.80;;;-14.35;95.56;99501.28;5018677;28;129596;-74
2021/12/08 01:09:29;;;;;;;17.92;7.72;;;-13.70;57.90;;;-14.39;95.32;99502.56;5037778;27;119044;-75
2021/12/08 01:12:01;;;;;;;15.48;7.32;;;-13.60;58.10;;;-14.36;95.73;99507.50;5002209;28;113876;-75
2021/12/08 01:14:32;;;;;;;17.63;7.15;;;-13.60;57.50;;;-14.53;96.05;99499.50;5017417;28;128877;-76
2021/12/08 01:17:03;;;;;;;16.45;7.80;;;-13.60;58.30;;;-14.43;95.92;99503.84;5002267;28;129759;-75
2021/12/08 01:19:32;;;;;;;20.30;8.70;;;-13.60;57.90;;;-14.51;96.26;99500.19;5012902;28;118825;-76
2021/12/08 01:22:01;;;;;;;18.38;8.00;;;-13.60;58.70;;;-14.51;96.74;99502.78;5012904;28;115523;-75
2021/12/08 01:24:31;;;;;;;19.40;8.85;;;-13.60;58.50;;;-14.48;96.73;99496.47;5013618;28;131103;-75
2021/12/08 01:27:00;;;;;;;17.98;7.35;;;-13.50;58.50;;;-14.59;96.74;99489.69;5016104;28;129269;-75
2021/12/08 01:29:30;;;;;;;19.85;6.90;;;-13.50;60.00;;;-14.65;97.05;99496.34;5022235;27;118474;-75
2021/12/08 01:31:59;;;;;;;14.23;6.90;;;-13.50;59.90;;;-14.70;97.31;99487.34;5010722;28;115128;-75
2021/12/08 01:34:27;;;;;;;20.23;8.30;;;-13.50;59.70;;;-14.69;97.92;99483.75;5007152;28;130030;-76
2021/12/08 01:36:56;;;;;;;18.42;7.82;;;-13.50;59.30;;;-14.71;98.17;99483.09;5024426;28;128384;-76
2021/12/08 01:39:26;;;;;;;13.80;6.97;;;-13.50;58.80;;;-14.78;98.10;99484.66;5026692;28;102731;-76
2021/12/08 01:41:55;;;;;;;20.73;7.50;;;-13.60;58.30;;;-14.79;98.11;99480.41;5025584;28;116044;-76
2021/12/08 01:47:11;;;;;;;23.63;8.27;;;-13.60;58.10;;;-14.81;97.42;99479.75;5020462;28;129642;-75
2021/12/08 01:49:39;;;;;;;16.73;7.78;;;-13.60;57.30;;;-14.86;97.72;99475.81;5023598;28;118159;-75
2021/12/08 01:52:08;;;;;;;12.38;6.72;;;-13.70;57.40;;;-14.76;97.37;99472.31;5024565;28;115028;-75
2021/12/08 01:54:36;;;;;;;16.48;8.38;;;-13.70;56.40;;;-14.84;97.24;99480.88;5007094;28;129363;-75
2021/12/08 01:57:06;;;;;;;18.83;7.32;;;-13.70;56.40;;;-14.89;97.36;99488.31;5012292;28;129837;-75
2021/12/08 01:59:35;;;;;;;20.88;8.57;;;-13.70;56.40;;;-14.97;97.40;99486.44;5024452;28;117024;-75
2021/12/08 02:02:04;;;;;;;20.27;9.07;;;-13.80;55.90;;;-14.94;96.93;99491.34;5022586;28;115130;-75
2021/12/08 02:04:34;;;;;;;16.60;7.97;;;-13.80;55.40;;;-14.88;96.09;99490.78;5007785;28;129845;-75
2021/12/08 02:07:03;;;;;;;21.27;8.85;;;-13.90;54.10;;;-14.84;95.82;99486.88;5017132;28;130257;-75
2021/12/08 02:09:32;;;;;;;22.40;8.52;;;-13.90;54.10;;;-14.81;96.11;99484.97;5008545;28;119611;-76
2021/12/08 02:12:00;;;;;;;19.55;8.65;;;-13.90;54.20;;;-14.99;96.43;99483.16;5021585;28;114948;-76
2021/12/08 02:14:31;;;;;;;16.52;7.72;;;-13.90;55.90;;;-14.97;96.39;99485.59;5014819;28;129787;-76
2021/12/08 02:17:01;;;;;;;16.98;7.90;;;-13.90;55.10;;;-14.87;96.26;99486.38;5018914;28;128704;-75
2021/12/08 02:19:31;;;;;;;20.67;8.65;;;-13.90;54.00;;;-15.13;97.43;99481.03;5015480;28;118734;-75
2021/12/08 02:22:00;;;;;;;20.58;8.80;;;-13.90;55.50;;;-15.12;96.78;99480.09;5005434;28;115145;-75
2021/12/08 02:24:29;;;;;;;21.65;8.88;;;-13.90;54.20;;;-15.15;96.47;99483.78;5021993;28;129789;-74
2021/12/08 02:27:00;;;;;;;22.02;9.95;;;-14.00;53.90;;;-15.03;96.54;99479.22;5019902;28;128406;-75
2021/12/08 02:29:38;;;;;;;21.67;9.10;;;-14.00;53.30;;;-15.08;96.22;99484.03;5005222;28;119028;-75
2021/12/08 02:32:23;;;;;;;29.77;9.80;;;-14.00;53.60;;;-15.15;96.34;99483.00;5018055;28;115671;-75
2021/12/08 02:48:45;;;;;;;17.07;8.67;;;-14.10;51.80;;;-15.18;95.76;99478.88;5021680;28;129666;-75
2021/12/08 02:51:14;;;;;;;28.70;8.90;;;-14.10;52.80;;;-15.17;95.41;99475.31;5025931;28;118676;-76
2021/12/08 02:53:44;;;;;;;17.92;8.23;;;-14.10;52.80;;;-15.31;95.77;99475.81;5007999;28;115204;-77
2021/12/08 02:56:13;;;;;;;21.77;9.15;;;-14.20;51.80;;;-15.28;95.29;99478.94;5023993;28;129848;-75
2021/12/08 02:58:42;;;;;;;16.27;9.05;;;-14.20;51.40;;;-15.26;95.58;99479.59;5018228;28;129547;-76
2021/12/08 03:01:12;;;;;;;19.70;7.55;;;-14.20;51.60;;;-15.32;95.28;99482.78;5026758;28;118484;-75
2021/12/08 03:03:49;;;;;;;17.63;7.97;;;-14.30;51.10;;;-15.27;95.21;99484.97;5022387;28;114786;-77
2021/12/08 03:06:19;;;;;;;18.08;8.25;;;-14.30;50.50;;;-15.31;94.82;99494.84;5021874;28;130047;-76
2021/12/08 03:08:50;;;;;;;18.27;7.82;;;-14.30;51.60;;;-15.32;94.67;99488.00;5024742;28;129602;-77
2021/12/08 03:11:19;;;;;;;18.10;7.68;;;-14.30;50.80;;;-15.39;94.72;99486.97;5025248;28;119162;-76
2021/12/08 03:14:04;;;;;;;18.23;7.68;;;-14.40;50.70;;;-15.30;94.46;99496.50;5012424;28;115458;-76
2021/12/08 03:16:34;;;;;;;18.55;8.32;;;-14.40;49.90;;;-15.44;94.51;99497.78;5023366;28;130590;-76
2021/12/08 03:19:05;;;;;;;15.48;7.30;;;-14.40;49.60;;;-15.42;94.42;99497.66;5018293;28;130704;-76
2021/12/08 03:21:34;;;;;;;21.45;9.05;;;-14.40;50.00;;;-15.40;94.68;99493.13;5027310;28;120476;-76
2021/12/08 03:24:18;;;;;;;15.85;8.07;;;-14.50;49.40;;;-15.49;94.48;99497.38;5021757;28;114871;-75
2021/12/08 03:26:53;;;;;;;17.60;8.23;;;-14.40;50.80;;;-15.54;94.45;99498.81;5016711;28;129874;-75
2021/12/08 03:29:29;;;;;;;17.88;7.22;;;-14.40;49.40;;;-15.51;94.58;99498.50;5020130;28;130064;-75
2021/12/08 03:32:05;;;;;;;15.73;8.15;;;-14.50;48.80;;;-15.60;94.48;99490.56;5014314;28;118745;-75
2021/12/08 03:34:37;;;;;;;;;;;-14.50;48.60;;;-15.66;94.89;99496.34;5017753;28;115102;-75
2021/12/08 03:37:08;;;;;;;19.02;8.43;;;-14.50;49.30;;;-15.61;94.63;99498.53;5024592;28;130288;-74
2021/12/08 03:39:42;;;;;;;17.73;7.20;;;-14.60;48.70;;;-15.74;95.28;99491.06;5026505;28;128573;-74
2021/12/08 03:42:12;;;;;;;22.60;9.02;;;-14.60;49.50;;;-15.69;95.24;99494.03;5021159;28;117710;-76
2021/12/08 03:44:41;;;;;;;17.58;7.68;;;-14.50;49.20;;;-15.66;94.93;99491.16;5017875;28;114964;-78
2021/12/08 03:47:15;;;;;;;16.15;7.35;;;-14.50;48.50;;;-15.65;94.74;99487.59;5018735;28;128779;-75
2021/12/08 03:49:47;;;;;;;21.38;7.28;;;-14.50;47.60;;;-15.78;94.75;99481.91;5019657;28;128826;-76
2021/12/08 03:52:16;;;;;;;18.75;8.05;;;-14.50;47.50;;;-15.78;95.05;99487.13;5011944;27;119455;-76
2021/12/08 03:54:46;;;;;;;21.13;8.27;;;-14.60;47.30;;;-15.70;94.23;99489.81;5005840;28;115249;-76
2021/12/08 03:57:15;;;;;;;13.95;7.72;;;-14.60;46.90;;;-15.78;94.63;99476.72;5021184;28;128942;-75
2021/12/08 03:59:44;;;;;;;18.88;7.22;;;-14.60;47.30;;;-15.89;95.05;99484.69;5017132;28;131022;-76
2021/12/08 04:02:13;;;;;;;21.85;7.70;;;-14.60;47.40;;;-15.94;95.05;99472.13;5024280;28;119279;-75
2021/12/08 04:04:45;;;;;;;23.02;9.05;;;-14.60;47.20;;;-15.87;95.26;99472.38;5025257;28;115782;-75
2021/12/08 04:07:16;;;;;;;18.48;9.00;;;-14.60;47.50;;;-15.85;95.64;99470.47;5009487;28;130371;-76
2021/12/08 04:09:48;;;;;;;22.02;9.18;;;-14.60;47.00;;;-15.82;95.29;99472.78;5014104;28;130530;-76
2021/12/08 04:12:20;;;;;;;18.65;8.85;;;-14.60;46.20;;;-15.81;94.75;99472.63;5006665;28;118868;-76
2021/12/08 04:14:54;;;;;;;23.98;9.00;;;-14.60;46.10;;;-15.86;95.31;99466.22;5013565;28;116696;-75
2021/12/08 04:17:27;;;;;;;22.40;9.48;;;-14.60;46.10;;;-15.77;94.25;99473.16;5021566;28;130152;-76
2021/12/08 04:19:59;;;;;;;17.23;7.65;;;-14.60;45.10;;;-15.85;94.85;99480.84;5018386;28;129752;-76
2021/12/08 04:22:35;;;;;;;16.73;8.52;;;-14.70;45.50;;;-15.84;94.77;99482.50;5023720;28;118636;-76
2021/12/08 04:25:11;;;;;;;19.35;8.32;;;-14.70;45.60;;;-15.87;94.49;99475.00;4998937;28;115192;-76
2021/12/08 04:27:42;;;;;;;;;;;-14.60;46.70;;;-15.87;94.88;99472.38;4997655;28;130685;-76
2021/12/08 04:30:16;;;;;;;21.80;8.07;;;-14.70;45.40;;;-15.89;94.26;99476.88;5022664;28;131152;-76
2021/12/08 04:32:45;;;;;;;17.48;7.53;;;-14.70;45.00;;;-15.92;94.10;99473.63;4991213;28;118808;-75
2021/12/08 04:35:17;;;;;;;15.90;7.95;;;-14.70;44.80;;;-16.02;94.85;99475.41;5004454;28;115096;-76
2021/12/08 04:37:52;;;;;;;15.50;7.95;;;-14.70;44.10;;;-16.00;94.54;99478.72;4998761;28;128605;-76
2021/12/08 04:40:34;;;;;;;15.52;7.20;;;-14.80;43.60;;;-16.02;94.28;99470.22;5003975;28;128696;-76
2021/12/08 04:43:13;;;;;;;16.58;8.07;;;-14.80;43.30;;;-16.00;94.03;99468.31;5001904;28;118004;-76
2021/12/08 04:45:53;;;;;;;17.65;6.78;;;-14.90;43.50;;;-15.98;93.84;99466.38;4990115;28;115725;-76
2021/12/08 04:48:38;;;;;;;15.27;7.05;;;-14.90;43.20;;;-16.03;93.59;99473.81;5005730;28;130014;-77
2021/12/08 04:51:30;;;;;;;16.92;7.63;;;-14.90;43.90;;;-16.18;94.65;99475.19;4978713;28;129607;-76
2021/12/08 05:03:03;;;;;;;16.37;7.63;;;-14.80;41.20;;;-16.23;94.20;99477.38;4994107;28;130055;-76
2021/12/08 05:05:59;;;;;;;14.30;6.97;;;-14.90;41.20;;;-16.17;93.96;99474.22;5002432;28;119551;-74
2021/12/08 05:08:40;;;;;;;16.52;7.70;;;-14.90;41.20;;;-16.23;94.34;99485.16;5004275;28;114497;-76
2021/12/08 05:11:14;;;;;;;15.73;8.07;;;-14.90;41.40;;;-16.29;94.44;99479.59;5005052;28;129056;-77
2021/12/08 05:13:49;;;;;;;16.75;8.10;;;-14.90;41.30;;;-16.43;94.29;99487.00;5002110;28;130030;-77
2021/12/08 05:16:22;;;;;;;19.48;7.38;;;-14.90;40.60;;;-16.41;94.35;99485.88;5003285;28;118005;-77
2021/12/08 05:18:52;;;;;;;17.65;8.43;;;-15.00;40.50;;;-16.32;95.01;99490.25;4998726;28;115086;-77
2021/12/08 05:21:30;;;;;;;15.05;7.53;;;-14.90;40.60;;;-16.36;94.30;99488.91;4992880;28;129253;-77
2021/12/08 05:24:08;;;;;;;18.92;8.27;;;-15.00;40.10;;;-16.38;93.74;99485.63;4983752;28;128346;-77
2021/12/08 05:26:41;;;;;;;15.77;7.22;;;-15.10;40.40;;;-16.37;94.08;99487.25;4998952;28;118913;-77
2021/12/08 05:29:17;;;;;;;21.20;8.35;;;-15.10;40.90;;;-16.27;94.05;99481.22;4998388;28;115258;-77
2021/12/08 05:31:47;;;;;;;18.13;8.70;;;-15.00;40.40;;;-16.46;94.01;99477.69;4995122;28;130707;-77
2021/12/08 05:34:24;;;;;;;18.70;7.88;;;-15.00;40.20;;;-16.51;94.50;99482.50;4994609;28;129918;-77
2021/12/08 05:36:54;;;;;;;16.00;7.22;;;-15.00;39.30;;;-16.58;94.33;99479.59;4990583;28;119401;-76
2021/12/08 05:39:28;;;;;;;18.55;8.10;;;-15.10;38.70;;;-16.51;94.69;99485.09;5001254;28;115382;-77
2021/12/08 05:42:02;;;;;;;22.33;8.07;;;-15.10;38.90;;;-16.48;94.66;99495.22;4995584;28;130100;-77
2021/12/08 05:44:33;;;;;;;23.45;7.45;;;-15.10;38.90;;;-16.33;93.99;99498.19;5002809;28;129408;-77
2021/12/08 05:47:10;;;;;;;20.27;7.97;;;-15.10;39.00;;;-16.14;93.17;99507.72;5003342;28;118398;-77
2021/12/08 05:49:38;;;;;;;;;;;-15.10;38.90;;;-16.32;92.87;99511.03;5004262;28;114791;-77
2021/12/08 05:52:10;;;;;;;14.93;7.43;;;-15.20;40.00;;;-16.44;92.77;99517.34;4974980;28;129414;-77
2021/12/08 05:54:54;;;;;;;13.75;7.38;;;-15.20;38.80;;;-16.25;92.89;99526.09;5002659;28;129355;-77
2021/12/08 05:57:28;;;;;;;15.38;7.35;;;-15.20;38.50;;;-16.40;92.54;99534.31;4998990;28;119302;-77
2021/12/08 05:59:59;;;;;;;17.38;7.47;;;-15.30;38.50;;;-16.55;92.89;99536.47;5002824;28;114853;-77
2021/12/08 06:02:31;;;;;;;17.85;7.57;;;-15.30;38.00;;;-16.45;92.11;99541.72;4993142;28;130114;-72
2021/12/08 06:05:00;;;;;;;17.13;8.05;;;-15.30;37.60;;;-16.55;92.61;99535.66;4995705;28;130142;-76
2021/12/08 06:07:29;;;;;;;17.73;7.95;;;-15.40;37.60;;;-16.57;92.61;99532.41;4999374;28;118968;-76
2021/12/08 06:10:02;;;;;;;18.35;9.73;;;-15.40;37.30;;;-16.64;92.28;99534.69;4989263;28;114612;-76
2021/12/08 06:12:30;;;;;;;19.48;10.15;;;-15.40;37.40;;;-16.52;92.06;99540.59;4999819;28;130569;-76
2021/12/08 06:15:01;;;;;;;22.88;10.13;;;-15.50;37.10;;;-16.58;91.56;99547.16;5004113;28;129932;-76
2021/12/08 06:17:33;;;;;;;18.92;8.45;;;-15.50;36.80;;;-16.60;91.51;99553.44;5007385;28;117824;-75
2021/12/08 06:20:02;;;;;;;25.13;10.80;;;-15.50;36.90;;;-16.65;91.77;99546.88;5006159;28;115572;-75
2021/12/08 06:22:31;;;;;;;18.20;9.30;;;-15.50;36.70;;;-16.55;92.09;99538.28;4997159;28;128580;-76
2021/12/08 06:25:00;;;;;;;17.77;10.15;;;-15.50;37.00;;;-16.50;91.92;99534.31;5003184;28;129572;-76
2021/12/08 06:27:31;;;;;;;17.05;8.10;;;-15.50;36.50;;;-16.59;91.31;99544.69;4989063;28;118115;-76
2021/12/08 06:30:01;;;;;;;18.17;8.05;;;-15.50;36.00;;;-16.55;91.27;99540.88;5000902;28;114589;-75
2021/12/08 06:32:30;;;;;;;22.73;9.98;;;-15.40;36.40;;;-16.74;91.71;99532.09;5021230;28;129555;-76
2021/12/08 06:35:01;;;;;;;24.80;12.50;;;-15.50;36.40;;;-16.69;92.09;99529.91;4997461;28;128783;-76
2021/12/08 06:37:37;;;;;;;23.30;10.30;;;-15.50;36.10;;;-16.63;91.62;99535.53;5006609;28;118970;-79
2021/12/08 06:40:15;;;;;;;23.08;9.88;;;-15.40;36.80;;;-16.50;91.26;99533.47;5000374;28;116132;-76
2021/12/08 06:42:48;;;;;;;26.23;8.63;;;-15.40;36.60;;;-16.31;91.50;99530.88;4997669;28;129601;-77
2021/12/08 06:45:23;;;;;;;16.17;7.95;;;-15.40;36.50;;;-16.31;90.86;99538.69;4986766;28;129193;-77
2021/12/08 06:47:54;;;;;;;20.67;7.90;;;-15.40;36.70;;;-16.41;91.22;99537.03;4995012;28;119149;-76
2021/12/08 06:50:26;;;;;;;21.27;8.73;;;-15.30;37.00;;;-16.39;90.95;99546.34;5006504;28;116299;-76
2021/12/08 06:52:58;;;;;;;20.10;9.07;;;-15.30;36.50;;;-16.38;91.29;99541.97;5004613;28;129988;-76
2021/12/08 06:55:31;;;;;;;19.33;8.85;;;-15.30;35.80;;;-16.48;91.21;99547.19;4974922;28;129625;-76
2021/12/08 06:58:06;;;;;;;22.00;12.52;;;-15.30;35.90;;;-16.32;91.47;99552.63;4997210;28;119556;-76
2021/12/08 07:00:49;;;;;;;22.85;10.80;;;-15.30;36.00;;;-16.53;92.06;99533.75;5020388;28;114277;-77
2021/12/08 07:03:34;;;;;;;23.20;11.00;;;-15.30;36.00;;;-16.82;92.34;99535.38;5007028;28;129808;-77
2021/12/08 07:06:19;;;;;;;19.77;9.77;;;-15.40;36.90;;;-16.79;93.17;99542.09;5000414;28;129945;-76
2021/12/08 07:08:53;;;;;;;19.08;8.80;;;-15.40;37.10;;;-16.81;93.55;99549.16;5007644;28;118540;-76
2021/12/08 07:11:25;;;;;;;16.98;9.07;;;-15.40;37.80;;;-16.49;93.52;99545.53;5003957;28;114221;-76
2021/12/08 07:13:57;;;;;;;17.33;8.20;;;-15.30;38.30;;;-16.42;92.03;99551.81;4999891;28;130469;-76
2021/12/08 07:16:32;;;;;;;15.77;7.57;;;-15.30;37.80;;;-16.29;92.08;99557.56;5004962;28;129879;-77
2021/12/08 07:19:10;;;;;;;19.67;9.75;;;-15.20;38.10;;;-16.09;91.21;99552.34;5007052;28;118356;-76
2021/12/08 07:21:44;;;;;;;16.73;8.07;;;-15.20;37.70;;;-16.25;91.38;99552.09;5001363;28;115259;-76
2021/12/08 07:24:17;;;;;;;17.10;9.43;;;-15.20;37.50;;;-16.17;91.44;99560.00;5005604;28;130332;-76
2021/12/08 07:26:53;;;;;;;27.42;13.10;;;-15.10;37.20;;;-16.23;91.50;99561.41;4996947;28;129438;-77
2021/12/08 07:29:27;;;;;;;19.20;9.37;;;-15.10;37.30;;;-15.89;91.38;99562.72;4998681;28;118178;-76
2021/12/08 07:32:02;;;;;;;23.55;11.52;;;-15.00;38.10;;;-15.68;89.78;99555.53;4996826;28;114214;-75
2021/12/08 07:34:32;;;;;;;19.83;8.65;;;-14.90;36.90;;;-15.56;89.14;99538.78;4998195;28;129954;-78
2021/12/08 07:37:08;;;;;;;22.10;7.95;;;-14.80;36.20;;;-15.58;88.49;99542.47;5004429;28;129811;-77
2021/12/08 07:39:44;;;;;;;35.45;12.68;;;-14.80;34.40;;;-15.49;89.05;99538.22;5002998;28;118704;-77
2021/12/08 07:45:48;;;;;;;47.58;21.00;;;-14.60;35.60;;;-15.22;89.44;99532.19;5007131;28;129170;-77
2021/12/08 07:48:22;;;;;;;69.30;29.92;;;-14.40;36.20;;;-14.89;88.27;99525.59;5003696;28;129575;-77
2021/12/08 07:50:57;;;;;;;49.13;23.90;;;-14.20;35.40;;;-14.70;87.21;99529.84;5001644;28;119092;-77
2021/12/08 07:53:31;;;;;;;54.23;26.70;;;-14.10;34.40;;;-14.27;86.76;99534.44;4996271;28;115725;-77
2021/12/08 07:56:05;;;;;;;32.90;17.10;;;-13.90;36.30;;;-14.23;85.92;99520.94;4999567;28;130277;-77
2021/12/08 07:58:39;;;;;;;19.45;8.88;;;-13.80;34.10;;;-14.12;86.94;99532.94;4989652;28;128731;-77
2021/12/08 08:01:12;;;;;;;20.02;8.77;;;-13.70;34.60;;;-13.81;85.48;99540.34;5000526;28;119075;-77
2021/12/08 08:03:45;;;;;;;19.58;9.00;;;-13.50;35.20;;;-13.93;85.87;99548.41;4998832;28;114909;-77
2021/12/08 08:06:20;;;;;;;45.58;21.90;;;-13.50;32.50;;;-13.81;85.15;99541.13;4991632;28;129035;-78
2021/12/08 08:08:52;;;;;;;25.73;11.23;;;-13.50;31.50;;;-14.03;85.60;99539.84;4992655;28;129839;-77
2021/12/08 08:11:27;;;;;;;60.60;22.63;;;-13.50;31.50;;;-13.70;84.59;99553.13;5004330;28;119007;-77
2021/12/08 08:13:57;;;;;;;23.65;11.88;;;-13.40;32.20;;;-13.77;84.68;99537.25;4996885;28;115984;-77
2021/12/08 08:16:31;;;;;;;27.83;11.80;;;-13.50;30.80;;;-13.92;84.39;99544.00;5002276;28;129894;-78
2021/12/08 08:19:11;;;;;;;20.73;9.00;;;-13.50;30.00;;;-13.76;84.71;99528.47;4992174;28;129424;-78
2021/12/08 08:21:45;;;;;;;28.70;10.48;;;-13.40;30.40;;;-13.33;84.27;99531.13;5004269;28;118653;-78
2021/12/08 08:24:15;;;;;;;31.38;15.05;;;-13.20;32.90;;;-13.27;84.10;99522.66;4996009;28;115942;-78
2021/12/08 08:26:48;;;;;;;27.83;14.57;;;-13.10;31.40;;;-12.88;83.45;99521.31;4994788;28;128357;-78
2021/12/08 08:29:19;;;;;;;37.10;17.63;;;-12.90;33.50;;;-12.71;82.90;99520.38;4992900;28;130660;-77
2021/12/08 08:31:58;;;;;;;39.55;18.10;;;-12.70;32.50;;;-12.49;82.50;99531.22;4988683;28;117886;-77
2021/12/08 08:34:33;;;;;;;40.20;17.45;;;-12.60;32.30;;;-12.75;83.55;99519.06;5019590;28;116066;-77
2021/12/08 08:37:03;;;;;;;31.50;14.35;;;-12.60;30.80;;;-12.95;83.93;99515.91;4986008;28;130308;-77
2021/12/08 08:39:37;;;;;;;33.30;17.05;;;-12.60;30.00;;;-12.80;85.00;99513.50;5002793;28;129733;-77
2021/12/08 08:42:13;;;;;;;26.85;12.30;;;-12.40;31.20;;;-13.04;86.14;99512.44;5004216;28;118481;-77
2021/12/08 08:44:48;;;;;;;27.67;15.13;;;-12.40;31.30;;;-13.04;87.05;99507.22;4993948;28;115808;-77
2021/12/08 08:47:22;;;;;;;19.70;10.68;;;-12.40;32.10;;;-13.18;87.10;99510.47;4992651;28;129730;-77
2021/12/08 08:49:53;;;;;;;29.92;14.38;;;-12.40;31.80;;;-13.22;87.06;99511.72;4998012;28;129713;-77
2021/12/08 08:52:27;;;;;;;15.95;8.50;;;-12.40;32.10;;;-13.31;88.03;99504.84;5001690;28;118938;-77
2021/12/08 08:55:04;;;;;;;19.70;10.02;;;-12.40;33.20;;;-13.45;89.05;99496.63;4988503;28;114668;-76
2021/12/08 08:57:37;;;;;;;21.58;9.90;;;-12.50;32.80;;;-13.26;88.14;99492.13;4993388;28;129968;-76
2021/12/08 09:00:16;;;;;;;21.65;8.98;;;-12.50;32.80;;;-13.05;87.70;99500.34;4986087;28;129690;-77
2021/12/08 09:02:45;;;;;;;18.02;8.75;;;-12.40;34.20;;;-13.32;88.36;99500.56;4986181;28;118845;-77
2021/12/08 09:05:23;;;;;;;33.60;16.83;;;-12.50;33.70;;;-13.14;88.58;99490.84;4998910;28;115662;-78
2021/12/08 09:07:58;;;;;;;24.85;11.40;;;-12.50;33.90;;;-13.12;87.94;99481.06;5000353;28;129897;-76
2021/12/08 09:10:34;;;;;;;21.90;11.15;;;-12.50;33.20;;;-13.07;87.43;99484.03;5004986;28;128989;-76
2021/12/08 09:13:09;;;;;;;18.50;9.85;;;-12.50;33.90;;;-12.98;87.37;99484.03;5004034;28;118875;-76
2021/12/08 09:15:42;;;;;;;19.17;8.25;;;-12.40;34.10;;;-13.29;87.55;99487.22;5001103;28;116915;-78
2021/12/08 09:18:15;;;;;;;14.77;7.38;;;-12.50;33.30;;;-13.47;88.79;99495.19;4991237;28;129876;-76
2021/12/08 09:20:56;;;;;;;28.35;13.18;;;-12.60;33.20;;;-13.47;89.17;99493.38;4994499;28;129944;-76
2021/12/08 09:23:30;;;;;;;19.65;9.18;;;-12.50;33.50;;;-13.33;87.57;99491.16;5000002;28;118895;-77
2021/12/08 09:26:04;;;;;;;31.13;14.05;;;-12.60;31.60;;;-13.06;87.61;99493.47;5000440;28;115919;-77
2021/12/08 09:28:42;;;;;;;42.70;18.83;;;-12.40;32.00;;;-12.77;86.39;99492.25;5000194;28;130090;-77
2021/12/08 09:31:17;;;;;;;23.30;11.25;;;-12.20;30.60;;;-12.84;86.77;99486.88;5001394;28;129562;-77
2021/12/08 09:33:51;;;;;;;23.08;11.07;;;-12.10;29.80;;;-12.78;87.13;99488.00;4995355;28;118889;-77
2021/12/08 09:36:25;;;;;;;24.65;11.85;;;-12.10;30.80;;;-12.42;86.34;99490.31;5000296;28;116010;-77
2021/12/08 09:38:59;;;;;;;21.60;10.68;;;-12.10;30.30;;;-12.25;85.22;99498.19;5003895;28;129905;-77
2021/12/08 09:41:36;;;;;;;20.75;10.38;;;-11.80;28.60;;;-11.47;83.09;99504.59;4999307;28;130037;-77
2021/12/08 09:44:16;;;;;;;23.13;11.05;;;-11.40;28.80;;;-11.38;81.54;99519.28;5001849;28;118874;-77
2021/12/08 09:46:48;;;;;;;30.73;15.02;;;-11.20;25.30;;;-10.99;80.63;99505.38;5000015;28;115899;-77
2021/12/08 09:49:23;;;;;;;24.10;12.45;;;-11.00;25.40;;;-10.73;79.81;99506.88;5000136;28;129863;-77
2021/12/08 09:51:55;;;;;;;21.83;12.57;;;-10.90;25.10;;;-11.15;80.07;99497.59;4997858;28;130352;-77
2021/12/08 09:54:24;;;;;;;20.23;8.75;;;-11.00;23.50;;;-11.43;80.91;99500.66;4995191;28;118586;-77
2021/12/08 09:56:54;;;;;;;17.30;9.13;;;-11.20;23.50;;;-11.64;81.72;99499.41;4998296;28;114858;-78
2021/12/08 09:59:24;;;;;;;18.40;8.80;;;-11.30;24.50;;;-11.67;82.13;99498.91;5003680;28;129007;-77
2021/12/08 10:01:56;;;;;;;19.13;8.95;;;-11.30;25.70;;;-11.59;82.33;99502.34;5004594;28;128504;-77
2021/12/08 10:04:25;;;;;;;16.85;9.43;;;-11.20;25.50;;;-11.11;81.03;99494.47;4998975;28;118842;-77
2021/12/08 10:07:02;;;;;;;21.08;8.15;;;-10.90;24.70;;;-11.51;82.35;99492.78;5002281;28;115112;-77
2021/12/08 10:09:31;;;;;;;64.22;26.83;;;-11.00;24.40;;;-11.19;82.52;99501.53;4985246;28;129626;-78
2021/12/08 10:12:00;;;;;;;45.33;23.10;;;-10.90;25.10;;;-11.06;81.20;99499.19;4993361;28;129619;-77
2021/12/08 10:14:29;;;;;;;22.38;11.30;;;-10.80;24.20;;;-10.67;80.40;99498.34;5003107;28;118333;-75
2021/12/08 10:16:58;;;;;;;21.95;10.88;;;-10.60;23.80;;;-10.33;78.13;99505.78;5011241;28;116165;-75
2021/12/08 10:19:27;;;;;;;19.25;8.85;;;-10.30;21.10;;;-10.16;76.58;99508.25;5000897;28;131065;-75
2021/12/08 10:21:58;;;;;;;16.02;7.70;;;-10.20;19.30;;;-10.28;76.10;99500.00;5002556;28;130273;-75
2021/12/08 10:24:31;;;;;;;14.38;7.72;;;-10.30;18.70;;;-10.21;76.16;99495.66;5001819;28;119198;-75
2021/12/08 10:27:10;;;;;;;16.85;7.97;;;-10.40;20.40;;;-11.07;78.75;99500.19;4994114;28;113642;-75
2021/12/08 10:29:39;;;;;;;18.48;8.70;;;-10.70;21.80;;;-10.76;79.77;99499.38;5002535;28;129740;-75
2021/12/08 10:32:14;;;;;;;14.80;7.90;;;-10.70;23.60;;;-11.82;82.81;99493.56;4997073;28;128640;-75
2021/12/08 10:34:52;;;;;;;33.75;15.20;;;-11.10;25.30;;;-11.90;83.79;99483.91;4993698;28;118798;-76
2021/12/08 10:37:22;;;;;;;24.20;12.27;;;-11.30;26.50;;;-12.21;84.86;99491.66;5000679;28;116116;-77
2021/12/08 10:39:54;;;;;;;29.95;17.25;;;-11.50;26.90;;;-12.43;86.00;99499.19;4997523;28;130456;-77
2021/12/08 10:42:25;;;;;;;23.00;11.95;;;-11.60;28.80;;;-12.48;86.24;99506.66;5001680;28;128939;-77
2021/12/08 10:45:08;;;;;;;34.45;19.70;;;-11.70;29.50;;;-12.52;86.44;99506.19;5002696;28;118800;-75
2021/12/08 10:47:44;;;;;;;28.95;17.45;;;-11.70;30.10;;;-12.45;87.34;99501.13;5001311;28;114845;-75